Time;durP1;ratioP1;P1;durP2;ratioP2;P2;SDS_P1;SDS_P2;PMS_P1;PMS_P2;Temp;Humidity;BMP_temperature;BMP_pressure;BME280_temperature;BME280_humidity;BME280_pressure;Samples;Min_cycle;Max_cycle;Signal;HPM_P1;HPM_P2
2023/04/03 08:32:12;;;;;;;5.75;1.38;;;7.00;99.90;;;;;;5138670;27;20450;-89
2023/04/03 08:34:39;;;;;;;6.30;2.08;;;;;;;;;;5097702;28;20134;-88
2023/04/03 08:37:05;;;;;;;4.45;1.35;;;6.90;99.90;;;;;;5091427;28;20926;-88
2023/04/03 08:39:32;;;;;;;3.75;1.27;;;7.40;99.90;;;;;;5080918;28;20040;-89
2023/04/03 08:42:01;;;;;;;2.85;1.10;;;7.00;99.90;;;;;;5087704;28;20035;-89
2023/04/03 08:44:58;;;;;;;5.85;2.13;;;6.90;99.90;;;;;;5092075;28;20035;-89
2023/04/03 08:47:25;;;;;;;9.35;3.35;;;7.00;99.90;;;;;;5104760;28;20040;-89
2023/04/03 08:49:58;;;;;;;4.65;1.90;;;7.20;99.90;;;;;;5096817;28;20036;-89
2023/04/03 08:52:38;;;;;;;3.45;1.00;;;7.00;99.90;;;;;;5096680;28;20621;-89
2023/04/03 08:55:13;;;;;;;4.75;1.60;;;7.10;99.90;;;;;;5097791;28;20036;-88
2023/04/03 08:57:41;;;;;;;7.15;1.38;;;7.10;99.90;;;;;;5097913;28;20047;-88
2023/04/03 09:00:21;;;;;;;4.13;1.38;;;7.20;99.90;;;;;;5098772;28;20039;-88
2023/04/03 09:02:52;;;;;;;4.25;1.40;;;7.30;99.30;;;;;;5109490;28;20041;-88
2023/04/03 09:05:59;;;;;;;2.63;1.00;;;7.30;99.90;;;;;;5108845;28;20039;-89
2023/04/03 09:08:37;;;;;;;2.50;1.00;;;7.30;99.90;;;;;;5079084;28;20507;-89
2023/04/03 09:11:28;;;;;;;2.33;1.02;;;7.90;99.40;;;;;;5106042;28;20404;-88
2023/04/03 09:14:23;;;;;;;3.58;1.02;;;7.50;97.60;;;;;;5094885;28;20063;-88
2023/04/03 09:17:03;;;;;;;2.30;0.80;;;7.60;97.00;;;;;;5080361;28;20096;-89
2023/04/03 09:19:42;;;;;;;3.25;1.13;;;7.60;96.20;;;;;;5093556;28;20044;-88
2023/04/03 09:22:13;;;;;;;2.78;1.10;;;7.70;96.60;;;;;;5096058;28;20036;-89
2023/04/03 09:24:41;;;;;;;3.00;0.90;;;7.80;97.60;;;;;;5083997;28;20036;-87
2023/04/03 09:27:12;;;;;;;3.15;1.00;;;7.90;96.90;;;;;;5085802;28;20032;-88
2023/04/03 09:29:45;;;;;;;3.08;1.08;;;8.10;96.50;;;;;;5082303;28;20119;-87
2023/04/03 09:32:38;;;;;;;3.00;1.30;;;8.20;94.20;;;;;;5106564;28;20246;-88
2023/04/03 09:35:31;;;;;;;2.85;0.75;;;8.30;93.90;;;;;;5103744;28;20048;-89
2023/04/03 09:38:11;;;;;;;1.92;0.70;;;8.30;89.10;;;;;;5095033;28;20069;-88
2023/04/03 09:40:43;;;;;;;3.22;0.90;;;8.40;89.50;;;;;;5084673;28;20094;-88
2023/04/03 09:43:24;;;;;;;1.58;0.80;;;8.50;91.40;;;;;;5075662;28;20039;-89
2023/04/03 09:45:51;;;;;;;2.88;1.05;;;8.90;91.80;;;;;;5080381;28;20036;-89
2023/04/03 09:48:23;;;;;;;0.95;0.77;;;9.20;88.90;;;;;;5081023;28;20119;-90
2023/04/03 09:51:04;;;;;;;3.15;1.13;;;9.40;88.60;;;;;;5080098;28;20043;-88
2023/04/03 09:53:44;;;;;;;4.75;1.10;;;9.50;86.80;;;;;;5082901;28;20036;-88
2023/04/03 09:56:16;;;;;;;1.55;0.77;;;9.30;88.90;;;;;;5073944;28;20042;-88
2023/04/03 09:59:06;;;;;;;2.25;0.90;;;9.60;86.50;;;;;;5082852;28;20492;-89
2023/04/03 10:01:38;;;;;;;2.30;0.73;;;9.60;84.40;;;;;;5089518;28;20048;-88
2023/04/03 10:04:10;;;;;;;3.70;0.98;;;9.80;83.10;;;;;;5077265;28;20073;-88
2023/04/03 10:06:49;;;;;;;3.55;1.00;;;9.80;77.10;;;;;;5078459;28;20042;-88
2023/04/03 10:09:28;;;;;;;1.15;0.63;;;9.80;76.60;;;;;;5082022;28;20089;-89
2023/04/03 10:12:06;;;;;;;1.75;0.60;;;9.70;75.50;;;;;;5062682;28;20093;-88
2023/04/03 10:14:38;;;;;;;1.95;0.70;;;9.60;70.80;;;;;;5083247;28;20046;-88
2023/04/03 10:17:38;;;;;;;1.13;0.60;;;9.60;70.40;;;;;;5092992;28;20065;-87
2023/04/03 10:20:32;;;;;;;3.38;0.60;;;9.60;67.30;;;;;;5087477;28;20480;-88
2023/04/03 10:23:46;;;;;;;2.33;0.88;;;9.50;69.70;;;;;;5075116;28;20036;-88
2023/04/03 10:26:33;;;;;;;2.47;0.80;;;9.80;71.70;;;;;;5068709;28;20043;-88
2023/04/03 10:29:26;;;;;;;1.42;0.65;;;10.20;70.20;;;;;;5082073;28;20065;-88
2023/04/03 10:31:52;;;;;;;2.63;0.85;;;10.40;70.40;;;;;;5072612;28;20048;-88
2023/04/03 10:34:33;;;;;;;2.72;1.10;;;10.50;72.00;;;;;;5077313;28;20115;-91
2023/04/03 10:37:23;;;;;;;3.03;0.70;;;10.60;69.70;;;;;;5074682;28;20483;-92
2023/04/03 10:40:20;;;;;;;2.35;0.93;;;10.70;69.60;;;;;;5082845;28;20036;-92
2023/04/03 10:43:02;;;;;;;1.65;0.82;;;10.70;70.00;;;;;;5081130;28;20035;-92
2023/04/03 10:45:38;;;;;;;1.52;0.82;;;10.70;68.80;;;;;;5101981;28;20050;-92
2023/04/03 10:48:23;;;;;;;1.95;0.80;;;10.80;69.90;;;;;;5087072;28;20085;-94
2023/04/03 10:50:58;;;;;;;2.50;0.90;;;10.60;66.70;;;;;;5084521;28;20044;-91
2023/04/03 10:53:36;;;;;;;4.72;1.15;;;10.60;66.00;;;;;;5081838;28;20514;-91
2023/04/03 10:56:26;;;;;;;1.90;0.70;;;10.60;65.50;;;;;;5082392;28;20040;-89
2023/04/03 10:58:57;;;;;;;2.13;0.90;;;10.70;65.80;;;;;;5067763;28;20039;-87
2023/04/03 11:01:31;;;;;;;1.52;0.82;;;10.70;65.00;;;;;;5071706;28;20545;-89
2023/04/03 11:03:59;;;;;;;1.27;0.65;;;10.60;66.90;;;;;;5086154;28;20054;-85
2023/04/03 11:06:31;;;;;;;3.53;0.95;;;10.50;63.90;;;;;;5092999;28;20036;-89
2023/04/03 11:09:06;;;;;;;2.13;0.90;;;10.40;65.50;;;;;;5079447;28;20036;-88
2023/04/03 11:11:41;;;;;;;1.02;0.57;;;10.20;64.60;;;;;;5075841;28;20476;-87
2023/04/03 11:14:27;;;;;;;3.00;0.90;;;10.10;65.40;;;;;;5079893;28;20064;-88
2023/04/03 11:17:12;;;;;;;1.45;0.82;;;10.00;67.30;;;;;;5080489;28;20421;-88
2023/04/03 11:20:10;;;;;;;2.53;1.00;;;10.00;66.20;;;;;;5080281;28;20134;-88
2023/04/03 11:22:42;;;;;;;2.58;0.90;;;10.10;67.40;;;;;;5080544;28;20027;-90
2023/04/03 11:25:11;;;;;;;1.65;0.90;;;10.10;67.60;;;;;;5073060;28;20147;-88
2023/04/03 11:27:43;;;;;;;1.50;0.80;;;10.20;67.20;;;;;;5081142;28;20054;-87
2023/04/03 11:30:18;;;;;;;1.83;0.95;;;10.30;67.70;;;;;;5076422;28;20060;-88
2023/04/03 11:33:09;;;;;;;2.65;0.80;;;10.50;66.10;;;;;;5102878;28;20048;-88
2023/04/03 11:35:36;;;;;;;4.47;1.10;;;10.80;67.50;;;;;;5077577;28;20051;-89
2023/04/03 11:38:06;;;;;;;2.03;0.90;;;11.30;68.20;;;;;;5075844;28;20035;-89
2023/04/03 11:40:37;;;;;;;2.80;1.00;;;11.50;66.50;;;;;;5080335;28;20118;-88
2023/04/03 11:43:25;;;;;;;5.40;1.15;;;11.60;65.70;;;;;;5080846;28;20142;-89
2023/04/03 11:45:59;;;;;;;3.13;1.10;;;11.50;66.60;;;;;;5073445;28;20039;-89
2023/04/03 11:48:33;;;;;;;2.45;0.90;;;11.60;67.60;;;;;;5081304;28;20038;-88
2023/04/03 11:51:21;;;;;;;3.88;1.00;;;11.70;67.80;;;;;;5079739;28;20050;-87
2023/04/03 11:53:47;;;;;;;3.22;1.27;;;11.60;64.70;;;;;;5081438;28;20047;-88
2023/04/03 11:56:28;;;;;;;4.80;1.00;;;11.30;64.80;;;;;;5080541;28;20492;-88
2023/04/03 11:59:12;;;;;;;2.55;1.00;;;11.20;66.10;;;;;;5076802;28;20039;-88
2023/04/03 12:02:24;;;;;;;3.35;1.25;;;11.20;68.10;;;;;;5078239;28;20035;-89
2023/04/03 12:05:27;;;;;;;2.85;1.20;;;11.20;68.10;;;;;;5091621;28;20038;-88
2023/04/03 12:08:23;;;;;;;2.67;0.90;;;11.40;67.20;;;;;;5079074;28;20101;-89
2023/04/03 12:11:14;;;;;;;2.15;1.10;;;11.40;67.70;;;;;;5072161;28;20044;-89
2023/04/03 12:13:56;;;;;;;3.20;1.17;;;11.60;67.10;;;;;;5089263;28;20067;-89
2023/04/03 12:16:37;;;;;;;2.50;0.80;;;11.80;67.60;;;;;;5077219;28;20032;-88
2023/04/03 12:19:18;;;;;;;3.92;1.00;;;11.80;65.70;;;;;;5062462;28;20392;-88
2023/04/03 12:21:51;;;;;;;2.10;0.80;;;11.80;66.20;;;;;;5079490;28;20096;-87
2023/04/03 12:24:17;;;;;;;1.92;0.98;;;11.80;63.40;;;;;;5077360;28;20166;-88
2023/04/03 12:27:20;;;;;;;3.03;1.10;;;11.80;64.00;;;;;;5071058;28;20059;-88
2023/04/03 12:30:04;;;;;;;1.58;0.82;;;11.70;63.40;;;;;;5067677;28;20047;-89
2023/04/03 12:32:54;;;;;;;2.58;1.00;;;11.60;62.10;;;;;;5077179;28;20066;-88
2023/04/03 12:35:35;;;;;;;2.17;0.93;;;11.40;61.90;;;;;;5093489;28;20032;-87
2023/04/03 12:38:20;;;;;;;1.92;0.90;;;11.40;62.00;;;;;;5079039;28;20071;-88
2023/04/03 12:41:14;;;;;;;1.63;1.00;;;11.30;63.70;;;;;;5076446;28;20044;-89
2023/04/03 12:43:46;;;;;;;1.73;0.80;;;11.40;64.00;;;;;;5058577;28;20054;-88
2023/04/03 12:46:16;;;;;;;2.83;1.15;;;11.40;64.00;;;;;;5091059;28;20032;-87
2023/04/03 12:48:55;;;;;;;3.08;1.10;;;11.60;63.40;;;;;;5097134;28;20035;-88
2023/04/03 12:51:35;;;;;;;2.65;0.80;;;11.80;62.40;;;;;;5072992;28;20032;-87
2023/04/03 12:54:12;;;;;;;2.35;0.90;;;12.00;63.40;;;;;;5066682;28;20039;-86
2023/04/03 12:56:39;;;;;;;1.80;0.95;;;12.40;64.40;;;;;;5074265;28;20115;-88
2023/04/03 12:59:22;;;;;;;4.45;1.20;;;12.60;63.80;;;;;;5072843;28;20356;-88
2023/04/03 13:02:01;;;;;;;4.00;1.30;;;12.80;63.10;;;;;;5079239;28;20042;-88
2023/04/03 13:04:30;;;;;;;2.17;0.98;;;12.90;62.00;;;;;;5066200;28;20031;-88
2023/04/03 13:06:56;;;;;;;3.10;1.17;;;13.00;62.80;;;;;;5066202;28;20071;-88
2023/04/03 13:09:23;;;;;;;5.60;1.40;;;13.30;62.60;;;;;;5085919;28;20087;-88
2023/04/03 13:12:13;;;;;;;1.67;1.02;;;13.70;61.50;;;;;;5067752;28;20032;-87
2023/04/03 13:14:40;;;;;;;2.38;1.10;;;14.20;62.70;;;;;;5075640;28;20058;-87
2023/04/03 13:17:16;;;;;;;3.70;1.20;;;14.80;61.70;;;;;;5073764;28;20118;-84
2023/04/03 13:19:45;;;;;;;2.17;1.15;;;15.10;60.40;;;;;;5066956;28;20028;-81
2023/04/03 13:22:38;;;;;;;2.53;1.13;;;15.30;60.40;;;;;;5072632;28;20043;-84
2023/04/03 13:25:06;;;;;;;3.00;1.33;;;15.60;60.00;;;;;;5088862;28;20046;-85
2023/04/03 13:27:33;;;;;;;2.38;1.10;;;15.90;58.80;;;;;;5086466;28;20121;-84
2023/04/03 13:30:01;;;;;;;2.50;1.20;;;16.20;58.90;;;;;;5071384;28;20513;-84
2023/04/03 13:32:31;;;;;;;3.75;1.30;;;16.50;57.60;;;;;;5077597;28;20038;-85
2023/04/03 13:34:57;;;;;;;3.72;1.58;;;16.60;56.00;;;;;;5071218;28;20476;-85
2023/04/03 13:37:28;;;;;;;3.95;1.10;;;16.60;55.90;;;;;;5077679;28;20573;-85
2023/04/03 13:40:07;;;;;;;2.47;1.20;;;16.70;56.40;;;;;;5072567;28;20032;-85
2023/04/03 13:42:40;;;;;;;3.17;1.38;;;17.00;57.90;;;;;;5073842;28;20039;-85
2023/04/03 13:45:10;;;;;;;3.83;1.50;;;17.10;57.10;;;;;;5097980;28;20035;-84
2023/04/03 13:47:43;;;;;;;4.35;1.50;;;17.30;57.70;;;;;;5094589;28;20051;-85
2023/04/03 13:50:11;;;;;;;3.22;1.20;;;17.20;57.30;;;;;;5078731;28;20123;-85
2023/04/03 13:53:02;;;;;;;2.15;1.20;;;17.30;56.20;;;;;;5093727;28;20036;-84
2023/04/03 13:55:31;;;;;;;2.33;1.10;;;17.40;54.50;;;;;;5081658;28;20092;-85
2023/04/03 13:58:21;;;;;;;2.53;1.30;;;17.30;54.60;;;;;;5081699;28;20495;-84
2023/04/03 14:00:55;;;;;;;2.55;1.15;;;17.00;53.30;;;;;;5108790;28;20050;-84
2023/04/03 14:03:37;;;;;;;3.88;1.60;;;16.60;53.30;;;;;;5118096;28;20089;-84
2023/04/03 14:06:09;;;;;;;3.80;1.50;;;16.10;54.20;;;;;;5079135;28;20052;-85
2023/04/03 14:08:35;;;;;;;3.33;1.20;;;15.90;55.20;;;;;;5082099;28;20040;-84
2023/04/03 14:11:01;;;;;;;2.67;1.30;;;16.00;56.00;;;;;;5061356;28;20044;-86
2023/04/03 14:13:31;;;;;;;2.15;0.90;;;15.90;56.20;;;;;;5028667;28;20036;-87
2023/04/03 14:15:57;;;;;;;3.78;1.48;;;15.90;54.70;;;;;;5080467;28;20039;-87
2023/04/03 14:18:23;;;;;;;2.65;1.40;;;15.70;54.60;;;;;;5064857;28;20131;-88
2023/04/03 14:20:49;;;;;;;2.97;1.40;;;15.50;55.30;;;;;;5059892;28;20613;-87
2023/04/03 14:23:15;;;;;;;3.13;1.60;;;15.40;56.00;;;;;;5044484;28;20040;-88
2023/04/03 14:25:42;;;;;;;2.00;1.20;;;15.50;54.50;;;;;;5061103;28;20040;-86
2023/04/03 14:28:21;;;;;;;4.10;1.48;;;15.20;54.20;;;;;;5045603;28;20475;-87
2023/04/03 14:30:48;;;;;;;3.50;1.55;;;14.90;54.00;;;;;;5064955;28;20048;-88
2023/04/03 14:33:18;;;;;;;2.88;1.40;;;14.80;55.00;;;;;;5078394;28;20051;-86
2023/04/03 14:35:44;;;;;;;4.15;1.10;;;15.00;54.70;;;;;;5095720;28;20040;-87
2023/04/03 14:38:30;;;;;;;3.78;1.45;;;15.30;54.10;;;;;;5042109;28;20036;-88
2023/04/03 14:40:58;;;;;;;2.63;1.42;;;15.20;54.00;;;;;;5057780;28;20049;-87
2023/04/03 14:43:25;;;;;;;3.13;1.45;;;15.00;54.30;;;;;;5057613;28;20071;-87
2023/04/03 14:45:51;;;;;;;3.58;1.50;;;14.50;53.80;;;;;;5073912;28;20047;-88
2023/04/03 14:48:21;;;;;;;3.45;1.33;;;15.90;54.80;;;;;;5078029;28;20032;-87
2023/04/03 14:50:49;;;;;;;3.47;1.40;;;15.90;55.20;;;;;;5072230;28;20384;-86
2023/04/03 14:53:16;;;;;;;4.22;1.40;;;15.70;54.60;;;;;;5077641;28;20373;-85
2023/04/03 14:55:46;;;;;;;2.45;1.10;;;15.90;55.00;;;;;;5094647;28;20036;-86
2023/04/03 14:58:14;;;;;;;4.47;1.80;;;15.90;55.10;;;;;;5059360;28;20041;-86
2023/04/03 15:00:40;;;;;;;4.43;1.15;;;15.90;55.20;;;;;;5077478;28;20383;-85
2023/04/03 15:03:09;;;;;;;3.63;1.73;;;15.90;56.00;;;;;;5077201;28;20050;-86
2023/04/03 15:05:37;;;;;;;3.25;1.50;;;15.70;55.80;;;;;;5076403;28;20075;-85
2023/04/03 15:08:02;;;;;;;3.72;1.65;;;15.70;54.80;;;;;;5060430;28;20530;-86
2023/04/03 15:10:30;;;;;;;3.88;1.48;;;15.60;56.30;;;;;;5060943;28;20072;-91
2023/04/03 15:12:56;;;;;;;3.58;1.40;;;16.20;56.00;;;;;;5076247;28;20039;-86
2023/04/03 15:15:24;;;;;;;2.65;1.67;;;16.60;55.70;;;;;;5088811;28;20032;-85
2023/04/03 15:17:56;;;;;;;4.93;1.60;;;17.00;55.10;;;;;;5097069;28;20043;-87
2023/04/03 15:20:27;;;;;;;7.32;2.13;;;17.30;53.90;;;;;;5076869;28;20040;-84
2023/04/03 15:22:55;;;;;;;4.68;1.55;;;17.30;53.60;;;;;;5088593;28;20480;-81
2023/04/03 15:25:21;;;;;;;3.17;1.63;;;16.90;54.10;;;;;;5077096;28;20138;-85
2023/04/03 15:27:47;;;;;;;3.95;1.67;;;16.60;53.60;;;;;;5059094;28;20214;-86
2023/04/03 15:30:18;;;;;;;3.45;1.67;;;16.50;53.50;;;;;;5059932;28;20105;-86
2023/04/03 15:32:44;;;;;;;3.85;1.65;;;16.90;53.20;;;;;;5077200;28;20040;-86
2023/04/03 15:35:10;;;;;;;3.60;1.70;;;17.10;53.90;;;;;;5060124;28;20066;-86
2023/04/03 15:37:36;;;;;;;3.80;1.33;;;17.00;54.60;;;;;;5077065;28;20040;-85
2023/04/03 15:40:03;;;;;;;2.92;1.70;;;16.90;54.10;;;;;;5076763;28;20031;-88
2023/04/03 15:42:29;;;;;;;2.97;1.63;;;16.80;54.30;;;;;;5059411;28;20062;-86
2023/04/03 15:44:54;;;;;;;2.83;1.45;;;16.60;54.10;;;;;;5093231;28;20547;-87
2023/04/03 15:47:20;;;;;;;5.70;1.50;;;16.60;53.90;;;;;;5035291;28;20036;-84
2023/04/03 15:49:46;;;;;;;4.18;1.42;;;16.60;54.00;;;;;;5059452;28;20169;-86
2023/04/03 15:52:12;;;;;;;3.55;1.63;;;16.30;54.30;;;;;;5075662;28;20051;-86
2023/04/03 15:54:37;;;;;;;3.97;1.55;;;16.10;54.40;;;;;;5037636;28;20047;-86
2023/04/03 15:57:03;;;;;;;2.47;1.30;;;16.60;53.30;;;;;;5074868;28;20036;-87
2023/04/03 15:59:30;;;;;;;3.67;1.65;;;16.80;52.20;;;;;;5052024;28;20048;-87
2023/04/03 16:01:57;;;;;;;4.97;1.90;;;16.70;52.80;;;;;;5081232;28;20051;-84
2023/04/03 16:04:22;;;;;;;3.58;1.63;;;16.20;52.60;;;;;;5049112;28;20037;-84
2023/04/03 16:06:49;;;;;;;7.22;1.52;;;15.90;52.40;;;;;;5027492;28;20055;-86
2023/04/03 16:09:15;;;;;;;4.85;1.80;;;15.60;53.00;;;;;;5072468;28;20041;-86
2023/04/03 16:11:41;;;;;;;2.30;1.35;;;15.20;53.90;;;;;;5038300;28;20451;-85
2023/04/03 16:14:07;;;;;;;3.22;1.73;;;14.20;53.80;;;;;;5072374;28;20106;-85
2023/04/03 16:16:34;;;;;;;5.70;1.80;;;14.90;54.70;;;;;;5061661;28;20032;-84
2023/04/03 16:19:00;;;;;;;3.53;1.80;;;15.00;54.60;;;;;;5060669;28;20492;-86
2023/04/03 16:21:27;;;;;;;4.90;1.65;;;15.50;54.60;;;;;;5055057;28;20074;-86
2023/04/03 16:23:53;;;;;;;4.75;1.52;;;15.50;53.90;;;;;;5059551;28;20047;-86
2023/04/03 16:26:19;;;;;;;4.63;1.60;;;15.80;53.20;;;;;;5075536;28;20044;-85
2023/04/03 16:28:45;;;;;;;4.70;1.60;;;16.10;52.50;;;;;;5058722;28;20044;-85
2023/04/03 16:31:11;;;;;;;2.88;1.70;;;16.30;51.80;;;;;;5098291;28;20048;-86
2023/04/03 16:33:37;;;;;;;4.78;2.08;;;16.50;52.20;;;;;;5072886;28;20040;-85
2023/04/03 16:36:04;;;;;;;4.78;1.50;;;16.90;51.50;;;;;;5092386;28;20089;-85
2023/04/03 16:38:30;;;;;;;2.20;1.67;;;17.40;51.50;;;;;;5048992;28;20044;-86
2023/04/03 16:40:59;;;;;;;2.85;1.50;;;17.90;51.00;;;;;;5055049;28;20044;-85
2023/04/03 16:43:25;;;;;;;4.07;1.60;;;18.30;51.70;;;;;;5055386;28;20098;-85
2023/04/03 16:45:51;;;;;;;3.30;1.90;;;18.70;50.20;;;;;;5072213;28;20570;-86
2023/04/03 16:48:17;;;;;;;2.38;1.40;;;18.70;50.70;;;;;;5075174;28;20046;-86
2023/04/03 16:50:47;;;;;;;6.13;1.95;;;18.60;49.80;;;;;;5074584;28;20129;-86
2023/04/03 16:53:14;;;;;;;4.43;1.70;;;18.40;49.60;;;;;;5077331;28;20042;-86
2023/04/03 16:55:40;;;;;;;2.78;1.60;;;18.30;50.60;;;;;;5092726;28;20040;-86
2023/04/03 16:58:06;;;;;;;5.53;1.63;;;17.90;50.70;;;;;;5075037;28;20059;-86
2023/04/03 17:00:33;;;;;;;4.47;1.95;;;17.40;49.80;;;;;;5063470;28;20042;-86
2023/04/03 17:02:59;;;;;;;7.45;1.75;;;15.50;49.90;;;;;;5059322;28;20544;-86
2023/04/03 17:05:25;;;;;;;4.43;1.52;;;15.70;51.40;;;;;;5078371;28;20075;-86
2023/04/03 17:07:51;;;;;;;4.20;1.73;;;15.10;52.00;;;;;;5062199;28;20089;-86
2023/04/03 17:10:17;;;;;;;3.83;1.35;;;14.60;52.70;;;;;;5078320;28;20097;-86
2023/04/03 17:12:42;;;;;;;3.75;1.67;;;14.20;52.80;;;;;;5079013;28;20097;-85
2023/04/03 17:15:09;;;;;;;3.17;1.60;;;13.60;53.60;;;;;;5079262;28;20035;-87
2023/04/03 17:17:35;;;;;;;4.63;1.88;;;13.30;55.00;;;;;;5077844;28;20036;-86
2023/04/03 17:20:01;;;;;;;3.92;1.70;;;13.00;55.60;;;;;;5058794;28;20132;-86
2023/04/03 17:22:28;;;;;;;12.80;3.78;;;12.80;55.80;;;;;;5059219;28;20370;-86
2023/04/03 17:24:53;;;;;;;5.63;2.28;;;12.70;55.90;;;;;;5042976;28;20402;-86
2023/04/03 17:27:19;;;;;;;5.18;2.00;;;12.50;56.30;;;;;;5058673;28;20040;-86
2023/04/03 17:29:45;;;;;;;8.10;2.20;;;12.30;56.90;;;;;;5042305;28;20066;-87
2023/04/03 17:32:11;;;;;;;8.20;2.20;;;12.10;57.60;;;;;;5031713;28;20052;-86
2023/04/03 17:34:37;;;;;;;4.07;1.92;;;12.00;58.30;;;;;;5009532;28;20072;-86
2023/04/03 17:37:03;;;;;;;4.15;1.83;;;11.90;58.50;;;;;;5031456;28;20495;-86
2023/04/03 17:39:28;;;;;;;10.35;2.00;;;11.80;58.20;;;;;;5039647;28;20533;-86
2023/04/03 17:41:54;;;;;;;4.13;1.77;;;11.10;59.10;;;;;;5046313;28;20044;-87
2023/04/03 17:44:20;;;;;;;5.07;1.75;;;11.50;59.70;;;;;;5063372;28;20044;-86
2023/04/03 17:46:46;;;;;;;3.30;1.80;;;11.40;59.80;;;;;;5062800;28;20028;-86
2023/04/03 17:49:13;;;;;;;5.47;2.03;;;11.10;61.80;;;;;;5075351;28;20419;-87
2023/04/03 17:51:42;;;;;;;2.45;1.58;;;10.00;60.90;;;;;;5043198;28;20048;-86
2023/04/03 17:54:08;;;;;;;3.05;1.80;;;11.10;61.40;;;;;;5029558;28;20040;-86
2023/04/03 17:56:34;;;;;;;4.07;1.60;;;11.00;62.40;;;;;;5043047;28;20166;-87
2023/04/03 17:58:59;;;;;;;5.35;1.50;;;11.00;62.00;;;;;;5058932;28;20037;-86
2023/04/03 18:01:31;;;;;;;3.03;1.52;;;12.20;63.60;;;;;;5042684;28;20119;-87
2023/04/03 18:04:00;;;;;;;3.83;1.42;;;10.80;63.20;;;;;;5067617;28;20036;-87
2023/04/03 18:06:29;;;;;;;4.50;1.70;;;10.80;64.10;;;;;;5057825;28;20036;-87
2023/04/03 18:09:02;;;;;;;3.05;1.40;;;10.80;63.90;;;;;;5043655;28;20044;-87
2023/04/03 18:11:29;;;;;;;4.78;1.80;;;10.70;63.80;;;;;;5061755;28;20395;-86
2023/04/03 18:13:59;;;;;;;4.72;1.65;;;10.60;64.60;;;;;;5061357;28;20503;-87
2023/04/03 18:16:25;;;;;;;3.42;1.40;;;10.50;64.70;;;;;;5060042;28;20123;-86
2023/04/03 18:18:50;;;;;;;3.60;1.40;;;10.50;65.90;;;;;;5061549;28;20076;-87
2023/04/03 18:21:16;;;;;;;3.40;1.50;;;10.40;66.20;;;;;;5024641;28;20032;-85
2023/04/03 18:23:48;;;;;;;2.78;1.55;;;10.30;66.20;;;;;;5065817;28;20515;-86
2023/04/03 18:26:15;;;;;;;3.10;1.63;;;10.20;65.90;;;;;;5059676;28;20071;-87
2023/04/03 18:28:45;;;;;;;3.08;1.70;;;10.10;66.70;;;;;;5057991;28;20040;-86
2023/04/03 18:31:14;;;;;;;4.38;1.48;;;10.00;66.00;;;;;;5062503;28;20048;-87
2023/04/03 18:33:41;;;;;;;3.95;1.30;;;9.80;66.60;;;;;;5060247;28;20036;-87
2023/04/03 18:36:07;;;;;;;44.15;30.30;;;10.70;67.20;;;;;;5041593;28;20483;-87
2023/04/03 18:38:33;;;;;;;34.58;23.73;;;9.70;68.10;;;;;;5041175;28;20124;-87
2023/04/03 18:41:00;;;;;;;12.70;8.52;;;9.70;68.00;;;;;;5043453;28;20070;-87
2023/04/03 18:43:27;;;;;;;7.47;4.32;;;9.60;67.40;;;;;;5056873;28;20051;-87
2023/04/03 18:45:53;;;;;;;8.05;4.63;;;9.50;67.60;;;;;;5044004;28;20372;-87
2023/04/03 18:48:20;;;;;;;20.15;13.00;;;9.50;67.70;;;;;;5044076;28;20514;-87
2023/04/03 18:50:47;;;;;;;16.83;11.23;;;9.40;68.00;;;;;;5056270;28;20120;-87
2023/04/03 18:53:13;;;;;;;9.85;5.65;;;9.30;68.10;;;;;;5049966;28;20423;-88
2023/04/03 18:55:39;;;;;;;8.05;4.68;;;9.20;68.40;;;;;;5066454;28;20032;-87
2023/04/03 18:58:05;;;;;;;6.93;4.32;;;9.10;68.90;;;;;;5043463;28;20090;-86
2023/04/03 19:00:31;;;;;;;5.72;3.22;;;9.00;69.60;;;;;;5064213;28;20040;-87
2023/04/03 19:02:56;;;;;;;4.28;3.00;;;8.90;69.60;;;;;;5069554;28;20116;-85
2023/04/03 19:05:22;;;;;;;8.45;4.55;;;8.90;70.10;;;;;;5069415;28;20047;-86
2023/04/03 19:07:49;;;;;;;6.07;2.35;;;9.00;70.00;;;;;;5060557;28;20040;-86
2023/04/03 19:10:16;;;;;;;6.15;3.85;;;8.60;69.60;;;;;;5073910;28;20047;-88
2023/04/03 19:12:47;;;;;;;4.65;2.25;;;8.50;69.90;;;;;;5054173;28;20036;-88
2023/04/03 19:15:14;;;;;;;3.40;1.83;;;8.40;69.80;;;;;;5052339;28;20055;-87
2023/04/03 19:17:40;;;;;;;3.33;1.60;;;8.20;70.20;;;;;;5049661;28;20581;-87
2023/04/03 19:20:08;;;;;;;3.65;1.63;;;8.20;70.20;;;;;;5060003;28;20484;-86
2023/04/03 19:22:34;;;;;;;3.05;1.20;;;8.00;70.80;;;;;;5044513;28;20028;-87
2023/04/03 19:25:00;;;;;;;4.65;1.65;;;7.90;71.50;;;;;;5072068;28;20094;-87
2023/04/03 19:27:26;;;;;;;2.67;1.40;;;7.80;71.30;;;;;;5067186;28;20024;-86
2023/04/03 19:29:52;;;;;;;4.57;2.00;;;7.70;71.60;;;;;;5051722;28;20038;-87
2023/04/03 19:32:18;;;;;;;3.83;1.85;;;7.60;72.60;;;;;;5051617;28;20044;-89
2023/04/03 19:34:44;;;;;;;4.10;1.63;;;7.60;73.20;;;;;;5075388;28;20487;-89
2023/04/03 19:37:10;;;;;;;3.17;1.85;;;7.60;73.00;;;;;;5070269;28;20040;-89
2023/04/03 19:39:37;;;;;;;4.35;2.00;;;7.50;72.90;;;;;;5059655;28;20472;-89
2023/04/03 19:42:04;;;;;;;4.75;1.58;;;8.20;73.80;;;;;;5057925;28;20044;-90
2023/04/03 19:44:32;;;;;;;3.47;1.55;;;7.30;74.70;;;;;;5071187;28;20102;-89
2023/04/03 19:46:59;;;;;;;4.82;3.45;;;7.20;74.10;;;;;;5077816;28;20173;-89
2023/04/03 19:49:24;;;;;;;4.38;2.20;;;7.10;75.20;;;;;;5057055;28;20041;-89
2023/04/03 19:51:52;;;;;;;4.63;2.00;;;7.10;75.50;;;;;;5068842;28;20047;-89
2023/04/03 19:54:18;;;;;;;4.47;1.50;;;7.00;75.50;;;;;;5067647;28;20087;-88
2023/04/03 19:56:44;;;;;;;3.95;1.88;;;6.90;75.50;;;;;;5073672;28;20430;-90
2023/04/03 19:59:10;;;;;;;5.05;1.65;;;6.90;76.80;;;;;;5039220;28;20123;-89
2023/04/03 20:01:36;;;;;;;3.00;1.65;;;6.80;77.30;;;;;;5074579;28;20032;-89
2023/04/03 20:04:02;;;;;;;14.10;10.50;;;6.80;77.90;;;;;;5039691;28;20040;-89
2023/04/03 20:06:28;;;;;;;5.75;2.75;;;6.70;77.80;;;;;;5057821;28;20075;-89
2023/04/03 20:08:53;;;;;;;3.22;1.75;;;7.70;79.40;;;;;;5073532;28;20433;-89
2023/04/03 20:11:20;;;;;;;18.33;11.75;;;6.80;79.40;;;;;;5046883;28;20037;-89
2023/04/03 20:13:50;;;;;;;16.13;11.18;;;6.50;80.20;;;;;;5089264;28;20097;-87
2023/04/03 20:16:18;;;;;;;6.13;2.90;;;6.50;80.00;;;;;;5097503;28;20062;-89
2023/04/03 20:18:44;;;;;;;3.60;2.15;;;6.40;80.80;;;;;;5076889;28;20036;-88
2023/04/03 20:21:11;;;;;;;3.33;1.77;;;6.30;81.50;;;;;;5075702;28;20044;-89
2023/04/03 20:23:36;;;;;;;160.40;80.93;;;6.30;84.20;;;;;;5050565;28;20453;-90
2023/04/03 20:26:05;;;;;;;22.17;13.77;;;6.90;85.50;;;;;;5055201;28;20141;-89
2023/04/03 20:28:32;;;;;;;6.80;3.22;;;6.20;85.30;;;;;;5067705;28;20036;-89
2023/04/03 20:30:58;;;;;;;4.60;2.67;;;6.10;85.80;;;;;;5057197;28;20102;-88
2023/04/03 20:33:27;;;;;;;4.55;2.30;;;6.20;85.80;;;;;;5043611;28;20051;-89
2023/04/03 20:35:55;;;;;;;5.35;2.17;;;6.40;87.00;;;;;;5060820;28;20063;-89
2023/04/03 20:38:21;;;;;;;10.73;4.57;;;6.30;88.90;;;;;;5060320;28;20484;-89
2023/04/03 20:40:48;;;;;;;10.27;5.05;;;6.50;90.20;;;;;;5075914;28;20119;-89
2023/04/03 20:43:14;;;;;;;15.38;7.55;;;5.80;90.40;;;;;;5076828;28;20040;-88
2023/04/03 20:45:40;;;;;;;8.80;3.08;;;6.90;91.40;;;;;;5059294;28;20093;-87
2023/04/03 20:48:06;;;;;;;4.35;2.15;;;5.90;91.80;;;;;;5061863;28;20040;-88
2023/04/03 20:50:32;;;;;;;4.10;2.15;;;5.70;92.00;;;;;;5076484;28;20076;-87
2023/04/03 20:52:59;;;;;;;5.85;1.50;;;5.70;92.40;;;;;;5065023;28;20047;-89
2023/04/03 20:55:25;;;;;;;5.95;2.60;;;6.00;92.40;;;;;;5077243;28;20084;-79
2023/04/03 20:57:53;;;;;;;4.72;2.40;;;5.50;93.00;;;;;;5111306;28;20031;-80
2023/04/03 21:00:19;;;;;;;3.35;1.58;;;5.40;94.10;;;;;;5077819;28;20071;-80
2023/04/03 21:02:47;;;;;;;4.43;1.40;;;5.40;93.70;;;;;;5077118;28;20042;-79
2023/04/03 21:05:15;;;;;;;4.30;1.60;;;5.40;94.30;;;;;;5082908;28;20036;-80
2023/04/03 21:08:18;;;;;;;4.43;1.70;;;5.30;94.70;;;;;;5097045;28;20123;-80
2023/04/03 21:11:22;;;;;;;2.20;1.20;;;5.20;95.40;;;;;;5071191;28;20114;-81
2023/04/03 21:14:34;;;;;;;5.70;1.52;;;5.10;96.80;;;;;;5092264;28;20044;-80
2023/04/03 21:17:01;;;;;;;2.83;1.70;;;5.20;97.00;;;;;;5094551;28;20100;-80
2023/04/03 21:19:27;;;;;;;4.53;1.83;;;5.10;96.80;;;;;;5076841;28;20042;-80
2023/04/03 21:21:53;;;;;;;3.60;1.80;;;5.80;97.00;;;;;;5090798;28;20035;-79
2023/04/03 21:24:19;;;;;;;4.45;1.90;;;5.30;96.30;;;;;;5059076;28;20044;-80
2023/04/03 21:26:45;;;;;;;7.63;2.00;;;5.10;96.80;;;;;;5075150;28;20036;-80
2023/04/03 21:29:11;;;;;;;3.78;1.60;;;5.10;97.80;;;;;;5110972;28;20107;-79
2023/04/03 21:31:56;;;;;;;3.63;1.65;;;5.00;97.80;;;;;;5082025;28;20052;-80
2023/04/03 21:34:32;;;;;;;3.88;1.90;;;4.90;98.30;;;;;;5055157;28;20051;-81
2023/04/03 21:37:08;;;;;;;7.55;2.10;;;5.30;98.40;;;;;;5074513;28;20043;-80
2023/04/03 21:39:33;;;;;;;4.03;1.92;;;4.90;99.80;;;;;;5043822;28;20434;-80
2023/04/03 21:41:59;;;;;;;11.85;6.68;;;4.90;99.90;;;;;;5044502;28;20044;-80
2023/04/03 21:44:28;;;;;;;5.90;2.97;;;4.90;99.90;;;;;;5075615;28;20083;-80
2023/04/03 21:46:53;;;;;;;7.68;4.43;;;4.80;99.90;;;;;;5057034;28;20391;-80